Time;durP1;ratioP1;P1;durP2;ratioP2;P2;SDS_P1;SDS_P2;PMS_P1;PMS_P2;Temp;Humidity;BMP_temperature;BMP_pressure;BME280_temperature;BME280_humidity;BME280_pressure;Samples;Min_cycle;Max_cycle;Signal;HPM_P1;HPM_P2
2023/09/26 00:01:03;;;;;;;;;;;;;;;22.89;52.37;99784.63;5073524;28;19920;-77
2023/09/26 00:03:28;;;;;;;;;;;;;;;22.88;52.99;99782.19;5091815;28;19912;-77
2023/09/26 00:05:56;;;;;;;;;;;;;;;22.85;53.21;99780.81;5091935;28;20350;-76
2023/09/26 00:08:22;;;;;;;;;;;;;;;22.87;52.40;99780.56;5091922;28;19991;-76
2023/09/26 00:10:47;;;;;;;;;;;;;;;22.89;52.51;99786.50;5091805;28;19947;-76
2023/09/26 00:13:13;;;;;;;;;;;;;;;22.94;53.21;99789.25;5093868;28;19990;-77
2023/09/26 00:15:38;;;;;;;;;;;;;;;22.95;52.47;99782.81;5093398;28;20434;-77
2023/09/26 00:18:05;;;;;;;;;;;;;;;22.94;52.01;99783.88;5091681;28;19912;-77
2023/09/26 00:20:32;;;;;;;;;;;;;;;22.90;52.22;99775.50;5092226;28;19912;-77
2023/09/26 00:22:57;;;;;;;;;;;;;;;22.87;52.44;99777.88;5091606;28;19916;-77
2023/09/26 00:25:23;;;;;;;;;;;;;;;22.83;52.00;99770.31;5091572;28;20511;-77
2023/09/26 00:27:49;;;;;;;;;;;;;;;22.80;52.35;99770.81;5091565;28;19909;-75
2023/09/26 00:30:15;;;;;;;;;;;;;;;22.80;52.20;99776.19;5073794;28;20372;-78
2023/09/26 00:32:40;;;;;;;;;;;;;;;22.79;52.51;99774.53;5091582;28;19912;-78
2023/09/26 00:35:08;;;;;;;;;;;;;;;22.78;52.50;99769.41;5091570;28;19915;-77
2023/09/26 00:37:33;;;;;;;;;;;;;;;22.77;52.04;99773.97;5093023;28;20354;-77
2023/09/26 00:39:59;;;;;;;;;;;;;;;22.78;52.07;99772.91;5077044;28;19927;-77
2023/09/26 00:42:24;;;;;;;;;;;;;;;22.80;51.98;99770.00;5095061;28;20307;-77
2023/09/26 00:44:50;;;;;;;;;;;;;;;22.77;52.40;99771.28;5095461;28;19912;-78
2023/09/26 00:47:16;;;;;;;;;;;;;;;22.75;52.00;99768.03;5095444;28;20383;-78
2023/09/26 00:49:41;;;;;;;;;;;;;;;22.71;52.20;99774.16;5095230;28;19947;-78
2023/09/26 00:52:07;;;;;;;;;;;;;;;22.67;52.20;99776.56;5095144;28;20014;-78
2023/09/26 00:54:32;;;;;;;;;;;;;;;22.65;52.60;99778.69;5076668;28;19920;-78
2023/09/26 00:56:58;;;;;;;;;;;;;;;22.61;52.28;99769.47;5076681;28;19993;-77
2023/09/26 00:59:24;;;;;;;;;;;;;;;22.62;52.17;99764.91;5094766;28;20381;-77
2023/09/26 01:01:50;;;;;;;;;;;;;;;22.60;52.41;99770.53;5094598;28;20289;-76
2023/09/26 01:04:16;;;;;;;;;;;;;;;22.43;52.84;99776.00;5094748;28;19919;-77
2023/09/26 01:06:41;;;;;;;;;;;;;;;22.40;52.38;99762.22;5094728;28;20282;-77
2023/09/26 01:09:09;;;;;;;;;;;;;;;22.40;52.69;99757.66;5094835;28;19919;-77
2023/09/26 01:11:35;;;;;;;;;;;;;;;22.40;52.77;99752.28;5094799;28;20396;-77
2023/09/26 01:14:00;;;;;;;;;;;;;;;22.42;52.81;99752.84;5094538;28;19916;-77
2023/09/26 01:16:25;;;;;;;;;;;;;;;22.44;52.70;99760.66;5094507;28;20040;-76
2023/09/26 01:18:51;;;;;;;;;;;;;;;22.45;52.53;99767.66;5076282;28;19916;-77
2023/09/26 01:21:16;;;;;;;;;;;;;;;22.46;52.33;99764.72;5094369;28;19999;-77
2023/09/26 01:23:43;;;;;;;;;;;;;;;22.48;52.53;99765.28;5076306;28;19920;-77
2023/09/26 01:26:09;;;;;;;;;;;;;;;22.50;52.32;99765.03;5094446;28;19911;-77
2023/09/26 01:28:35;;;;;;;;;;;;;;;22.51;52.36;99759.41;5094776;28;19912;-77
2023/09/26 01:31:00;;;;;;;;;;;;;;;22.58;52.30;99755.72;5076119;28;19912;-77
2023/09/26 01:33:25;;;;;;;;;;;;;;;22.60;52.31;99759.78;5094666;28;19919;-77
2023/09/26 01:35:51;;;;;;;;;;;;;;;22.58;52.38;99758.41;5094879;28;19912;-77
2023/09/26 01:38:19;;;;;;;;;;;;;;;22.52;52.19;99758.34;5094299;28;20362;-78
2023/09/26 01:40:44;;;;;;;;;;;;;;;22.55;51.89;99753.53;5094257;28;19987;-77
2023/09/26 01:43:09;;;;;;;;;;;;;;;22.54;51.65;99757.28;5075987;28;20057;-77
2023/09/26 01:45:34;;;;;;;;;;;;;;;22.56;51.58;99755.16;5094145;28;19912;-77
2023/09/26 01:48:00;;;;;;;;;;;;;;;22.56;51.52;99766.72;5093923;28;19916;-77
2023/09/26 01:50:26;;;;;;;;;;;;;;;22.58;51.33;99764.59;5075798;28;19912;-77
2023/09/26 01:52:52;;;;;;;;;;;;;;;22.62;51.36;99757.66;5093996;28;20345;-77
2023/09/26 01:55:18;;;;;;;;;;;;;;;22.66;50.97;99763.34;5093876;28;20293;-77
2023/09/26 01:57:44;;;;;;;;;;;;;;;22.68;51.05;99762.03;5093650;28;19912;-76
2023/09/26 02:00:10;;;;;;;;;;;;;;;22.70;50.77;99753.69;5093940;28;19912;-77
2023/09/26 02:02:37;;;;;;;;;;;;;;;22.71;50.68;99752.63;5093642;28;20349;-77
2023/09/26 02:05:02;;;;;;;;;;;;;;;22.70;50.55;99749.13;5093793;28;19955;-77
2023/09/26 02:07:27;;;;;;;;;;;;;;;22.68;50.53;99745.06;5093733;28;19935;-77
2023/09/26 02:09:52;;;;;;;;;;;;;;;22.68;50.46;99751.25;5075316;28;20419;-77
2023/09/26 02:12:18;;;;;;;;;;;;;;;22.70;50.41;99756.41;5093330;28;19912;-78
2023/09/26 02:14:43;;;;;;;;;;;;;;;22.71;50.29;99753.44;5093520;28;20380;-77
2023/09/26 02:17:10;;;;;;;;;;;;;;;22.71;50.26;99753.44;5093425;28;19908;-78
2023/09/26 02:19:35;;;;;;;;;;;;;;;22.71;50.19;99753.44;5093673;28;19912;-77
2023/09/26 02:22:02;;;;;;;;;;;;;;;22.69;50.14;99760.97;5093513;28;19923;-78
2023/09/26 02:24:27;;;;;;;;;;;;;;;22.70;50.06;99756.41;5093476;28;19923;-77
2023/09/26 02:26:55;;;;;;;;;;;;;;;22.70;49.87;99762.59;5093383;28;19912;-77
2023/09/26 02:29:20;;;;;;;;;;;;;;;22.71;49.81;99749.94;5093295;28;19916;-77
2023/09/26 02:31:45;;;;;;;;;;;;;;;22.68;49.88;99750.44;5093147;28;20404;-77
2023/09/26 02:34:12;;;;;;;;;;;;;;;22.67;50.01;99751.50;5093120;28;19971;-77
2023/09/26 02:36:37;;;;;;;;;;;;;;;22.68;50.12;99756.66;5093044;28;20381;-77
2023/09/26 02:39:02;;;;;;;;;;;;;;;22.62;50.13;99751.47;5093000;28;19928;-77
2023/09/26 02:41:28;;;;;;;;;;;;;;;22.61;50.42;99749.81;5093078;28;19966;-76
2023/09/26 02:43:55;;;;;;;;;;;;;;;22.61;50.33;99750.66;5092906;28;19947;-77
2023/09/26 02:46:20;;;;;;;;;;;;;;;22.66;50.29;99756.09;5074892;28;19912;-77
2023/09/26 02:48:46;;;;;;;;;;;;;;;22.71;50.04;99761.53;5074642;28;19919;-77
2023/09/26 02:51:11;;;;;;;;;;;;;;;22.72;50.25;99765.84;5092997;28;19999;-78
2023/09/26 02:53:37;;;;;;;;;;;;;;;22.75;50.10;99757.25;5093005;28;20293;-77
2023/09/26 02:56:02;;;;;;;;;;;;;;;22.74;49.80;99758.31;5092961;28;19999;-77
2023/09/26 02:58:27;;;;;;;;;;;;;;;22.72;49.96;99756.94;5092677;28;19912;-77
2023/09/26 03:00:52;;;;;;;;;;;;;;;22.67;49.90;99748.81;5092093;28;19919;-77
2023/09/26 03:03:18;;;;;;;;;;;;;;;22.63;49.78;99755.78;5092571;28;19966;-76
2023/09/26 03:05:49;;;;;;;;;;;;;;;22.63;49.75;99750.38;5092597;28;19912;-77
2023/09/26 03:08:15;;;;;;;;;;;;;;;22.59;49.82;99755.47;5095927;28;19912;-76
2023/09/26 03:10:40;;;;;;;;;;;;;;;22.57;49.96;99749.53;5097319;28;20373;-78
2023/09/26 03:13:06;;;;;;;;;;;;;;;22.53;50.37;99751.09;5092402;28;19973;-77
2023/09/26 03:15:31;;;;;;;;;;;;;;;22.54;50.14;99741.13;5092350;28;19974;-77
2023/09/26 03:17:57;;;;;;;;;;;;;;;22.58;50.17;99747.63;5074103;28;20098;-78
2023/09/26 03:20:22;;;;;;;;;;;;;;;22.58;50.18;99743.06;5092400;28;19919;-77
2023/09/26 03:22:49;;;;;;;;;;;;;;;22.61;50.01;99747.94;5092185;28;19967;-77
2023/09/26 03:25:14;;;;;;;;;;;;;;;22.61;49.95;99741.75;5092436;28;19959;-76
2023/09/26 03:27:40;;;;;;;;;;;;;;;22.58;49.76;99740.38;5073960;28;19951;-78
2023/09/26 03:30:05;;;;;;;;;;;;;;;22.57;49.92;99746.81;5092517;28;19990;-76
2023/09/26 03:32:31;;;;;;;;;;;;;;;22.60;50.20;99742.81;5074022;28;19912;-77
2023/09/26 03:34:56;;;;;;;;;;;;;;;22.61;49.73;99747.94;5073947;28;20297;-77
2023/09/26 03:37:22;;;;;;;;;;;;;;;22.64;49.65;99750.13;5073714;28;19916;-77
2023/09/26 03:39:47;;;;;;;;;;;;;;;22.64;49.63;99741.25;5091965;28;19912;-77
2023/09/26 03:42:13;;;;;;;;;;;;;;;22.61;49.48;99747.13;5091915;28;19923;-77
2023/09/26 03:44:41;;;;;;;;;;;;;;;22.56;49.50;99747.91;5073770;28;19912;-78
2023/09/26 03:47:07;;;;;;;;;;;;;;;22.56;49.55;99752.47;5073673;28;19939;-77
2023/09/26 03:49:32;;;;;;;;;;;;;;;22.59;49.43;99754.66;5091755;28;20365;-76
2023/09/26 03:51:57;;;;;;;;;;;;;;;22.61;49.29;99755.22;5092166;28;19927;-76
2023/09/26 03:54:24;;;;;;;;;;;;;;;22.62;49.08;99751.47;5092315;28;19920;-77
2023/09/26 03:56:50;;;;;;;;;;;;;;;22.59;49.30;99752.78;5091835;28;19912;-77
2023/09/26 03:59:16;;;;;;;;;;;;;;;22.49;49.36;99756.16;5091924;28;20386;-77
2023/09/26 04:01:42;;;;;;;;;;;;;;;22.48;49.50;99756.41;5091767;28;19970;-77
2023/09/26 04:04:08;;;;;;;;;;;;;;;22.46;49.62;99758.53;5092067;28;19979;-77
2023/09/26 04:06:33;;;;;;;;;;;;;;;22.42;49.52;99770.88;5091641;28;19961;-75
2023/09/26 04:08:59;;;;;;;;;;;;;;;22.37;49.57;99771.63;5091670;28;19916;-76
2023/09/26 04:11:25;;;;;;;;;;;;;;;22.39;49.46;99779.44;5091797;28;20443;-77
2023/09/26 04:13:50;;;;;;;;;;;;;;;22.36;49.56;99780.75;5095402;28;20003;-76
2023/09/26 04:16:15;;;;;;;;;;;;;;;22.31;49.57;99775.31;5095810;28;19912;-77
2023/09/26 04:18:43;;;;;;;;;;;;;;;22.33;49.56;99770.47;5095590;28;19912;-77
2023/09/26 04:21:08;;;;;;;;;;;;;;;22.36;49.37;99774.56;5095539;28;20391;-77
2023/09/26 04:23:33;;;;;;;;;;;;;;;22.35;49.39;99779.13;5095528;28;19911;-77
2023/09/26 04:25:59;;;;;;;;;;;;;;;22.35;49.50;99772.91;5095531;28;19974;-77
2023/09/26 04:28:24;;;;;;;;;;;;;;;22.37;49.36;99782.38;5095887;28;19935;-77
2023/09/26 04:30:49;;;;;;;;;;;;;;;22.40;49.45;99773.00;5095659;28;19912;-76
2023/09/26 04:33:15;;;;;;;;;;;;;;;22.44;49.10;99774.13;5095470;28;20057;-77
2023/09/26 04:35:41;;;;;;;;;;;;;;;22.45;49.11;99779.25;5095235;28;19919;-77
2023/09/26 04:38:06;;;;;;;;;;;;;;;22.46;49.07;99774.69;5076980;28;19912;-76
2023/09/26 04:40:33;;;;;;;;;;;;;;;22.46;48.94;99770.13;5095208;28;19912;-76
2023/09/26 04:42:59;;;;;;;;;;;;;;;22.47;49.15;99769.03;5094926;28;19920;-77
2023/09/26 04:45:24;;;;;;;;;;;;;;;22.51;49.00;99777.44;5095348;28;20335;-77
2023/09/26 04:47:50;;;;;;;;;;;;;;;22.54;48.60;99774.25;5095122;28;19912;-77
2023/09/26 04:50:15;;;;;;;;;;;;;;;22.55;48.67;99772.38;5076934;28;19947;-77
2023/09/26 04:52:40;;;;;;;;;;;;;;;22.54;48.76;99784.19;5094916;28;19935;-78
2023/09/26 04:55:06;;;;;;;;;;;;;;;22.49;48.68;99782.25;5076609;28;19919;-77
2023/09/26 04:57:31;;;;;;;;;;;;;;;22.52;48.77;99781.75;5095038;28;19989;-76
2023/09/26 04:59:56;;;;;;;;;;;;;;;22.55;48.77;99797.41;5094864;28;19919;-77
2023/09/26 05:02:21;;;;;;;;;;;;;;;22.58;48.82;99788.81;5076553;28;19947;-77
2023/09/26 05:04:48;;;;;;;;;;;;;;;22.64;48.54;99801.28;5094850;28;20433;-77
2023/09/26 05:07:14;;;;;;;;;;;;;;;22.63;48.70;99793.44;5094825;28;19965;-77
2023/09/26 05:09:39;;;;;;;;;;;;;;;22.63;48.51;99796.97;5094606;28;19916;-77
2023/09/26 05:12:04;;;;;;;;;;;;;;;22.61;48.65;99807.16;5094648;28;19935;-77
2023/09/26 05:14:29;;;;;;;;;;;;;;;22.61;48.75;99812.53;5076323;28;19913;-77
2023/09/26 05:16:55;;;;;;;;;;;;;;;22.54;48.77;99809.22;5094652;28;19916;-77
2023/09/26 05:19:20;;;;;;;;;;;;;;;22.56;48.96;99806.28;5094465;28;19912;-77
2023/09/26 05:21:45;;;;;;;;;;;;;;;22.54;48.98;99808.41;5094392;28;20368;-77
2023/09/26 05:24:10;;;;;;;;;;;;;;;22.60;49.12;99812.78;5094117;28;19911;-78
2023/09/26 05:26:36;;;;;;;;;;;;;;;22.60;48.82;99816.28;5094286;28;19912;-78
2023/09/26 05:29:02;;;;;;;;;;;;;;;22.58;48.99;99815.72;5094393;28;19934;-77
2023/09/26 05:31:31;;;;;;;;;;;;;;;22.56;49.04;99817.03;5094419;28;20373;-78
2023/09/26 05:33:57;;;;;;;;;;;;;;;22.57;49.21;99818.69;5094387;28;19950;-78
2023/09/26 05:36:22;;;;;;;;;;;;;;;22.59;49.34;99822.75;5095118;28;19956;-77
2023/09/26 05:38:47;;;;;;;;;;;;;;;22.59;49.39;99817.38;5076594;28;19965;-77
2023/09/26 05:41:13;;;;;;;;;;;;;;;22.55;49.18;99820.81;5094086;28;19912;-77
2023/09/26 05:43:38;;;;;;;;;;;;;;;22.56;49.38;99823.25;5094091;28;19951;-77
2023/09/26 05:46:04;;;;;;;;;;;;;;;22.61;49.38;99828.69;5094298;28;19935;-77
2023/09/26 05:48:29;;;;;;;;;;;;;;;22.67;48.94;99819.63;5093958;28;19919;-77
2023/09/26 05:50:59;;;;;;;;;;;;;;;22.72;49.27;99827.75;5093685;28;19928;-77
2023/09/26 05:53:24;;;;;;;;;;;;;;;22.76;49.42;99828.88;5093927;28;19962;-77
2023/09/26 05:55:53;;;;;;;;;;;;;;;22.82;49.09;99829.78;5093764;28;19916;-77
2023/09/26 05:58:19;;;;;;;;;;;;;;;22.88;49.21;99820.69;5071798;28;19938;-78
2023/09/26 06:00:45;;;;;;;;;;;;;;;22.90;49.17;99829.34;5086537;28;20423;-77
2023/09/26 06:03:11;;;;;;;;;;;;;;;22.95;49.19;99826.72;5083668;28;20024;-77
2023/09/26 06:05:36;;;;;;;;;;;;;;;22.91;49.34;99827.47;5092462;28;20003;-76
2023/09/26 06:08:01;;;;;;;;;;;;;;;22.84;49.88;99824.97;5093561;28;19915;-77
2023/09/26 06:10:26;;;;;;;;;;;;;;;22.90;49.65;99833.91;5092727;28;20397;-77
2023/09/26 06:12:53;;;;;;;;;;;;;;;22.97;49.19;99827.28;5093106;28;19963;-76
2023/09/26 06:15:18;;;;;;;;;;;;;;;22.90;49.88;99823.97;5072948;28;19916;-77
2023/09/26 06:17:44;;;;;;;;;;;;;;;22.96;49.92;99827.53;5088086;28;19924;-77
2023/09/26 06:20:10;;;;;;;;;;;;;;;23.01;49.86;99822.19;5073210;28;19994;-78
2023/09/26 06:22:35;;;;;;;;;;;;;;;23.09;50.03;99830.66;5066365;28;19920;-76
2023/09/26 06:25:02;;;;;;;;;;;;;;;23.22;50.14;99829.44;5054858;28;20437;-77
2023/09/26 06:27:27;;;;;;;;;;;;;;;23.31;49.69;99833.31;5072742;28;19913;-77
2023/09/26 06:29:52;;;;;;;;;;;;;;;23.42;49.75;99835.03;5073484;28;20338;-77
2023/09/26 06:32:18;;;;;;;;;;;;;;;23.53;50.28;99837.84;5092788;28;20308;-77
2023/09/26 06:34:44;;;;;;;;;;;;;;;23.53;50.17;99832.44;5074017;28;19915;-77
2023/09/26 06:37:10;;;;;;;;;;;;;;;23.51;50.00;99842.66;5074714;28;19912;-77
2023/09/26 06:39:36;;;;;;;;;;;;;;;23.43;50.46;99828.59;5092573;28;19916;-77
2023/09/26 06:42:02;;;;;;;;;;;;;;;23.51;50.89;99835.38;5092351;28;19931;-77
2023/09/26 06:44:28;;;;;;;;;;;;;;;23.61;50.02;99832.81;5088004;28;19916;-75
2023/09/26 06:46:54;;;;;;;;;;;;;;;23.65;51.20;99830.41;5087544;28;20440;-78
2023/09/26 06:49:19;;;;;;;;;;;;;;;23.71;50.58;99840.19;5090689;28;20014;-76
2023/09/26 06:51:45;;;;;;;;;;;;;;;23.80;51.60;99835.16;5089457;28;19923;-78
2023/09/26 06:54:10;;;;;;;;;;;;;;;23.87;50.09;99841.16;5092049;28;19973;-76
2023/09/26 06:56:35;;;;;;;;;;;;;;;23.92;50.09;99843.88;5070722;28;19922;-77
2023/09/26 06:59:01;;;;;;;;;;;;;;;23.96;49.68;99837.72;5071065;28;20301;-76
2023/09/26 07:01:26;;;;;;;;;;;;;;;23.98;50.03;99840.16;5072338;28;19912;-76
2023/09/26 07:03:51;;;;;;;;;;;;;;;24.02;50.06;99852.84;5091231;28;19916;-77
2023/09/26 07:06:16;;;;;;;;;;;;;;;24.02;49.97;99850.16;5095362;28;20405;-75
2023/09/26 07:08:43;;;;;;;;;;;;;;;24.07;49.73;99849.38;5075998;28;19912;-76
2023/09/26 07:11:09;;;;;;;;;;;;;;;24.16;49.76;99844.31;5091765;28;19923;-76
2023/09/26 07:13:34;;;;;;;;;;;;;;;24.27;49.76;99846.03;5091726;28;20018;-76
2023/09/26 07:16:00;;;;;;;;;;;;;;;24.39;49.60;99847.47;5091378;28;20467;-77
2023/09/26 07:18:25;;;;;;;;;;;;;;;24.50;49.38;99842.13;5090218;28;19954;-77
2023/09/26 07:20:51;;;;;;;;;;;;;;;24.64;48.86;99836.00;5070715;28;20377;-78
2023/09/26 07:23:16;;;;;;;;;;;;;;;24.73;48.87;99843.59;5070206;28;19943;-74
2023/09/26 07:25:42;;;;;;;;;;;;;;;24.75;48.74;99841.47;5088283;28;19974;-76
2023/09/26 07:28:07;;;;;;;;;;;;;;;24.82;48.31;99845.53;5091857;28;19923;-77
2023/09/26 07:30:32;;;;;;;;;;;;;;;24.87;48.76;99848.25;5091073;28;19916;-78
2023/09/26 07:32:58;;;;;;;;;;;;;;;24.82;48.62;99848.25;5091404;28;19923;-76
2023/09/26 07:35:25;;;;;;;;;;;;;;;24.83;48.49;99840.94;5091691;28;19916;-77
2023/09/26 07:37:51;;;;;;;;;;;;;;;24.89;48.15;99853.41;5072694;28;19916;-77
2023/09/26 07:40:16;;;;;;;;;;;;;;;25.06;48.16;99845.09;5091828;28;19955;-75
2023/09/26 07:42:41;;;;;;;;;;;;;;;25.17;48.19;99834.06;5090978;28;19920;-75
2023/09/26 07:45:07;;;;;;;;;;;;;;;25.32;48.01;99842.22;5072382;28;19957;-76
2023/09/26 07:47:32;;;;;;;;;;;;;;;25.35;47.63;99832.78;5083780;28;19973;-75
2023/09/26 07:49:57;;;;;;;;;;;;;;;25.38;47.26;99840.34;5088526;28;19916;-76
2023/09/26 07:52:26;;;;;;;;;;;;;;;25.42;47.34;99846.03;5090430;28;19943;-75
2023/09/26 07:54:51;;;;;;;;;;;;;;;25.37;47.47;99846.03;5090485;28;19973;-77
2023/09/26 07:57:16;;;;;;;;;;;;;;;25.36;47.44;99850.63;5091065;28;19916;-78
2023/09/26 07:59:42;;;;;;;;;;;;;;;25.28;47.98;99848.44;5069921;28;19913;-78
2023/09/26 08:02:07;;;;;;;;;;;;;;;25.24;48.10;99850.03;5085208;28;19916;-78
2023/09/26 08:04:32;;;;;;;;;;;;;;;25.24;47.81;99842.72;5091195;28;19920;-79
2023/09/26 08:06:57;;;;;;;;;;;;;;;25.23;47.71;99843.81;5091101;28;20471;-77
2023/09/26 08:09:23;;;;;;;;;;;;;;;25.27;47.73;99839.53;5072998;28;19924;-77
2023/09/26 08:11:48;;;;;;;;;;;;;;;25.38;47.90;99840.34;5091322;28;20337;-77
2023/09/26 08:14:13;;;;;;;;;;;;;;;25.42;48.14;99835.22;5090863;28;19923;-78
2023/09/26 08:16:39;;;;;;;;;;;;;;;25.42;47.76;99838.72;5073494;28;19969;-76
2023/09/26 08:19:04;;;;;;;;;;;;;;;25.55;47.58;99842.81;5091399;28;19935;-77
2023/09/26 08:21:29;;;;;;;;;;;;;;;25.60;47.15;99840.91;5072767;28;19965;-76
2023/09/26 08:23:55;;;;;;;;;;;;;;;25.61;47.77;99839.03;5090768;28;19916;-76
2023/09/26 08:26:20;;;;;;;;;;;;;;;25.61;47.64;99837.13;5072812;28;19920;-76
2023/09/26 08:28:46;;;;;;;;;;;;;;;25.69;47.80;99833.09;5090875;28;19939;-76
2023/09/26 08:31:15;;;;;;;;;;;;;;;25.74;47.90;99832.28;5071137;28;19954;-76
2023/09/26 08:33:41;;;;;;;;;;;;;;;25.91;46.94;99830.13;5088234;28;19920;-76
2023/09/26 08:36:15;;;;;;;;;;;;;;;25.94;47.37;99829.56;5088618;28;20395;-76
2023/09/26 08:38:42;;;;;;;;;;;;;;;25.97;47.13;99827.13;5072884;28;19916;-75
2023/09/26 08:41:08;;;;;;;;;;;;;;;25.94;47.21;99824.97;5086684;28;20400;-76
2023/09/26 08:43:33;;;;;;;;;;;;;;;25.88;47.40;99817.94;5091098;28;19999;-76
2023/09/26 08:45:58;;;;;;;;;;;;;;;25.89;47.37;99822.28;5090593;28;19913;-76
2023/09/26 08:48:24;;;;;;;;;;;;;;;25.88;47.27;99826.06;5089597;28;19916;-76
2023/09/26 08:50:49;;;;;;;;;;;;;;;25.84;47.59;99826.88;5090296;28;19927;-77
2023/09/26 08:53:15;;;;;;;;;;;;;;;25.84;47.17;99824.16;5081825;28;19964;-76
2023/09/26 08:55:42;;;;;;;;;;;;;;;25.82;46.83;99826.34;5088725;28;19923;-76
2023/09/26 08:58:08;;;;;;;;;;;;;;;25.85;46.81;99826.59;5087744;28;19969;-75
2023/09/26 09:00:33;;;;;;;;;;;;;;;26.00;46.71;99812.25;5093124;28;19957;-76
2023/09/26 09:02:58;;;;;;;;;;;;;;;26.03;46.09;99817.16;5092146;28;19967;-76
2023/09/26 09:05:24;;;;;;;;;;;;;;;26.06;46.31;99810.38;5095120;28;19916;-76
2023/09/26 09:07:49;;;;;;;;;;;;;;;25.98;46.34;99817.13;5099064;28;20407;-76
2023/09/26 09:10:16;;;;;;;;;;;;;;;25.94;45.96;99816.84;5094577;28;19916;-77
2023/09/26 09:12:43;;;;;;;;;;;;;;;26.05;46.08;99808.75;5067917;28;20308;-77
2023/09/26 09:15:14;;;;;;;;;;;;;;;26.31;45.41;99804.91;5092536;28;19916;-77
2023/09/26 09:17:40;;;;;;;;;;;;;;;26.64;44.47;99800.75;5078494;28;19951;-77
2023/09/26 09:20:06;;;;;;;;;;;;;;;26.97;43.94;99796.56;5094305;28;19938;-77
2023/09/26 09:22:32;;;;;;;;;;;;;;;27.27;42.91;99792.06;5093230;28;19987;-77
2023/09/26 09:24:58;;;;;;;;;;;;;;;27.49;42.87;99797.84;5094336;28;20308;-77
2023/09/26 09:27:30;;;;;;;;;;;;;;;27.69;42.57;99791.50;5093996;28;19999;-77
2023/09/26 09:30:03;;;;;;;;;;;;;;;27.62;42.53;99797.28;5090577;28;19919;-76
2023/09/26 09:32:29;;;;;;;;;;;;;;;27.48;42.91;99785.38;5092862;28;19916;-76
2023/09/26 09:34:54;;;;;;;;;;;;;;;27.40;42.51;99791.41;5093265;28;20403;-76
2023/09/26 09:37:20;;;;;;;;;;;;;;;27.25;43.22;99783.41;5093714;28;19916;-76
2023/09/26 09:39:46;;;;;;;;;;;;;;;27.09;43.57;99791.63;5090947;28;19916;-78
2023/09/26 09:42:12;;;;;;;;;;;;;;;27.19;43.49;99785.34;5094002;28;19977;-78
2023/09/26 09:44:37;;;;;;;;;;;;;;;27.57;43.62;99791.84;5075232;28;19916;-76
2023/09/26 09:47:04;;;;;;;;;;;;;;;27.63;42.77;99787.22;5091116;28;20057;-77
2023/09/26 09:49:31;;;;;;;;;;;;;;;27.50;43.27;99784.03;5093364;28;19961;-77
2023/09/26 09:52:00;;;;;;;;;;;;;;;27.65;42.83;99785.03;5090014;28;19920;-76
2023/09/26 09:54:28;;;;;;;;;;;;;;;28.03;42.36;99780.59;5091209;28;19973;-76
2023/09/26 09:56:54;;;;;;;;;;;;;;;28.12;42.46;99781.59;5093526;28;19927;-76
2023/09/26 09:59:22;;;;;;;;;;;;;;;27.94;42.42;99788.56;5093944;28;19922;-76
2023/09/26 10:01:50;;;;;;;;;;;;;;;27.63;42.77;99787.22;5062321;28;19956;-78
2023/09/26 10:04:15;;;;;;;;;;;;;;;27.49;43.33;99787.00;5090683;28;19920;-77
2023/09/26 10:06:41;;;;;;;;;;;;;;;27.43;43.11;99772.69;5089990;28;19957;-76
2023/09/26 10:09:08;;;;;;;;;;;;;;;27.82;43.21;99766.44;5090785;28;19952;-77
2023/09/26 10:11:33;;;;;;;;;;;;;;;28.27;42.46;99767.09;5092441;28;19926;-76
2023/09/26 10:13:59;;;;;;;;;;;;;;;28.68;41.85;99767.41;5060463;28;19999;-76
2023/09/26 10:16:25;;;;;;;;;;;;;;;29.11;41.01;99770.91;5078278;28;19959;-77
2023/09/26 10:18:50;;;;;;;;;;;;;;;29.04;40.21;99765.84;5092212;28;20380;-76
2023/09/26 10:21:26;;;;;;;;;;;;;;;28.89;41.35;99755.19;5092786;28;19952;-78
2023/09/26 10:24:09;;;;;;;;;;;;;;;28.60;41.45;99755.28;5058285;28;20016;-76
2023/09/26 10:26:38;;;;;;;;;;;;;;;28.32;41.63;99756.19;5060592;28;19926;-78
2023/09/26 10:29:11;;;;;;;;;;;;;;;28.29;41.70;99749.41;5091440;28;19930;-77
2023/09/26 10:31:38;;;;;;;;;;;;;;;28.56;42.06;99758.88;5073755;28;19955;-78
2023/09/26 10:34:04;;;;;;;;;;;;;;;28.57;42.08;99755.03;5069239;28;19924;-76
2023/09/26 10:36:29;;;;;;;;;;;;;;;28.52;41.50;99749.69;5082927;28;19965;-77
2023/09/26 10:38:58;;;;;;;;;;;;;;;28.61;41.67;99748.75;5092363;28;19959;-77
2023/09/26 10:41:24;;;;;;;;;;;;;;;28.71;41.10;99747.78;5074602;28;19947;-77
2023/09/26 10:43:49;;;;;;;;;;;;;;;29.06;40.89;99743.81;5092848;28;20058;-76
2023/09/26 10:46:15;;;;;;;;;;;;;;;29.49;39.65;99746.41;5092661;28;19918;-77
2023/09/26 10:48:40;;;;;;;;;;;;;;;29.67;38.24;99737.38;5092564;28;20273;-77
2023/09/26 10:51:06;;;;;;;;;;;;;;;29.96;38.68;99728.97;5092434;28;20017;-76
2023/09/26 10:53:31;;;;;;;;;;;;;;;30.25;38.27;99717.81;5092318;28;19912;-75
2023/09/26 10:55:56;;;;;;;;;;;;;;;30.43;38.61;99724.25;5091895;28;19920;-76
2023/09/26 10:58:22;;;;;;;;;;;;;;;30.21;38.71;99725.78;5073977;28;19920;-76
2023/09/26 11:00:51;;;;;;;;;;;;;;;30.17;37.57;99722.06;5072591;28;19916;-75
2023/09/26 11:03:16;;;;;;;;;;;;;;;30.20;38.16;99717.91;5061244;28;19977;-75
2023/09/26 11:05:42;;;;;;;;;;;;;;;30.46;38.03;99718.19;5092474;28;19928;-76
2023/09/26 11:08:07;;;;;;;;;;;;;;;30.80;37.68;99729.47;5069569;28;20014;-76
2023/09/26 11:10:33;;;;;;;;;;;;;;;31.09;36.38;99712.72;5092074;28;19916;-76
2023/09/26 11:12:58;;;;;;;;;;;;;;;31.14;37.29;99720.75;5073627;28;19916;-76
2023/09/26 11:15:25;;;;;;;;;;;;;;;30.77;36.81;99712.94;5073833;28;20417;-75
2023/09/26 11:17:50;;;;;;;;;;;;;;;30.43;36.24;99718.81;5091214;28;19916;-77
2023/09/26 11:20:16;;;;;;;;;;;;;;;30.10;37.88;99727.09;5065393;28;19919;-75
2023/09/26 11:22:45;;;;;;;;;;;;;;;29.84;38.28;99728.66;5087295;28;19920;-76
2023/09/26 11:25:11;;;;;;;;;;;;;;;29.83;38.38;99727.06;5091986;28;19916;-75
2023/09/26 11:27:40;;;;;;;;;;;;;;;29.84;38.27;99721.31;5092089;28;19972;-78
2023/09/26 11:30:10;;;;;;;;;;;;;;;29.54;38.30;99724.56;5092199;28;19912;-77
2023/09/26 11:32:35;;;;;;;;;;;;;;;29.26;38.68;99720.94;5091969;28;19916;-77
2023/09/26 11:35:01;;;;;;;;;;;;;;;29.03;38.69;99731.63;5073661;28;19916;-77
2023/09/26 11:37:30;;;;;;;;;;;;;;;28.88;39.15;99723.66;5091984;28;19919;-78
2023/09/26 11:39:55;;;;;;;;;;;;;;;28.87;39.70;99719.31;5091488;28;20316;-75
2023/09/26 11:42:21;;;;;;;;;;;;;;;28.92;39.26;99726.59;5091559;28;19920;-77
2023/09/26 11:44:55;;;;;;;;;;;;;;;28.82;39.50;99721.28;5091971;28;20448;-75
2023/09/26 11:47:21;;;;;;;;;;;;;;;28.64;39.32;99712.84;5091796;28;19920;-76
2023/09/26 11:49:48;;;;;;;;;;;;;;;28.52;39.87;99715.19;5091431;28;19923;-76
2023/09/26 11:52:13;;;;;;;;;;;;;;;28.43;39.57;99714.22;5087943;28;19929;-76
2023/09/26 11:54:39;;;;;;;;;;;;;;;28.37;39.87;99707.22;5090832;28;20028;-77
2023/09/26 11:57:04;;;;;;;;;;;;;;;28.33;39.87;99711.63;5090520;28;19916;-76
2023/09/26 11:59:29;;;;;;;;;;;;;;;28.27;40.13;99708.16;5091515;28;19918;-75
2023/09/26 12:01:58;;;;;;;;;;;;;;;28.24;40.56;99695.16;5091518;28;19923;-77
2023/09/26 12:04:24;;;;;;;;;;;;;;;28.26;40.70;99700.31;5091973;28;19926;-78
2023/09/26 12:06:49;;;;;;;;;;;;;;;28.36;40.46;99694.75;5091460;28;19920;-78
2023/09/26 12:09:19;;;;;;;;;;;;;;;28.54;40.38;99690.44;5091571;28;19912;-76
2023/09/26 12:11:45;;;;;;;;;;;;;;;28.71;39.41;99690.72;5091437;28;19969;-75
2023/09/26 12:14:10;;;;;;;;;;;;;;;28.75;39.65;99691.75;5073317;28;20330;-75
2023/09/26 12:16:35;;;;;;;;;;;;;;;28.69;39.79;99701.09;5090909;28;19923;-77
2023/09/26 12:19:01;;;;;;;;;;;;;;;28.62;39.89;99695.22;5073266;28;19919;-76
2023/09/26 12:21:26;;;;;;;;;;;;;;;28.56;40.01;99688.22;5091531;28;19969;-75
2023/09/26 12:23:51;;;;;;;;;;;;;;;28.55;40.12;99689.34;5091412;28;19916;-76
2023/09/26 12:26:17;;;;;;;;;;;;;;;28.54;40.30;99682.28;5069655;28;19913;-76
2023/09/26 12:28:42;;;;;;;;;;;;;;;28.54;40.16;99683.09;5068986;28;19916;-77
2023/09/26 12:31:08;;;;;;;;;;;;;;;28.54;39.27;99672.22;5071310;28;19913;-77
2023/09/26 12:33:33;;;;;;;;;;;;;;;28.63;37.24;99667.75;5072739;28;19913;-77
2023/09/26 12:35:59;;;;;;;;;;;;;;;28.69;37.28;99671.19;5073824;28;19919;-77
2023/09/26 12:38:24;;;;;;;;;;;;;;;28.74;36.47;99668.41;5075120;28;19935;-77
2023/09/26 12:40:50;;;;;;;;;;;;;;;28.72;37.55;99670.59;5075631;28;20038;-76